sensor_id;sensor_type;location;lat;lon;timestamp;P1;durP1;ratioP1;P2;durP2;ratioP2
7501;SDS011;3792;47.740;7.606;2023-12-04T00:00:37;20.37;;;12.43;;
7501;SDS011;3792;47.740;7.606;2023-12-04T00:03:04;19.50;;;11.03;;
7501;SDS011;3792;47.740;7.606;2023-12-04T00:05:31;19.40;;;11.97;;
7501;SDS011;3792;47.740;7.606;2023-12-04T00:07:59;16.60;;;10.30;;
7501;SDS011;3792;47.740;7.606;2023-12-04T00:10:26;19.67;;;10.57;;
7501;SDS011;3792;47.740;7.606;2023-12-04T00:12:53;16.37;;;10.67;;
7501;SDS011;3792;47.740;7.606;2023-12-04T00:15:20;16.13;;;10.97;;
7501;SDS011;3792;47.740;7.606;2023-12-04T00:17:47;18.60;;;11.67;;
7501;SDS011;3792;47.740;7.606;2023-12-04T00:20:14;18.53;;;11.37;;
7501;SDS011;3792;47.740;7.606;2023-12-04T00:22:42;15.43;;;10.43;;
7501;SDS011;3792;47.740;7.606;2023-12-04T00:25:10;17.90;;;11.00;;
7501;SDS011;3792;47.740;7.606;2023-12-04T00:27:37;16.07;;;10.30;;
7501;SDS011;3792;47.740;7.606;2023-12-04T00:30:04;16.43;;;9.90;;
7501;SDS011;3792;47.740;7.606;2023-12-04T00:32:32;16.53;;;10.70;;
7501;SDS011;3792;47.740;7.606;2023-12-04T00:34:59;17.17;;;10.73;;
7501;SDS011;3792;47.740;7.606;2023-12-04T00:37:26;16.00;;;10.57;;
7501;SDS011;3792;47.740;7.606;2023-12-04T00:39:53;16.60;;;10.03;;
7501;SDS011;3792;47.740;7.606;2023-12-04T00:42:22;16.53;;;9.97;;
7501;SDS011;3792;47.740;7.606;2023-12-04T00:44:49;15.57;;;9.73;;
7501;SDS011;3792;47.740;7.606;2023-12-04T00:47:16;15.93;;;9.97;;
7501;SDS011;3792;47.740;7.606;2023-12-04T00:49:43;16.43;;;9.87;;
7501;SDS011;3792;47.740;7.606;2023-12-04T00:52:10;16.63;;;10.40;;
7501;SDS011;3792;47.740;7.606;2023-12-04T00:54:38;14.67;;;9.40;;
7501;SDS011;3792;47.740;7.606;2023-12-04T00:57:06;14.87;;;9.77;;
7501;SDS011;3792;47.740;7.606;2023-12-04T00:59:35;16.50;;;9.73;;
7501;SDS011;3792;47.740;7.606;2023-12-04T01:02:02;14.27;;;9.60;;
7501;SDS011;3792;47.740;7.606;2023-12-04T01:04:30;13.90;;;8.27;;
7501;SDS011;3792;47.740;7.606;2023-12-04T01:06:57;13.47;;;9.20;;
7501;SDS011;3792;47.740;7.606;2023-12-04T01:09:24;15.80;;;10.57;;
7501;SDS011;3792;47.740;7.606;2023-12-04T01:11:51;14.63;;;9.40;;
7501;SDS011;3792;47.740;7.606;2023-12-04T01:14:19;15.03;;;9.33;;
7501;SDS011;3792;47.740;7.606;2023-12-04T01:16:48;12.13;;;8.17;;
7501;SDS011;3792;47.740;7.606;2023-12-04T01:19:15;14.70;;;8.57;;
7501;SDS011;3792;47.740;7.606;2023-12-04T01:21:42;13.20;;;8.70;;
7501;SDS011;3792;47.740;7.606;2023-12-04T01:24:09;13.77;;;8.90;;
7501;SDS011;3792;47.740;7.606;2023-12-04T01:26:36;13.40;;;8.83;;
7501;SDS011;3792;47.740;7.606;2023-12-04T01:29:03;13.87;;;8.10;;
7501;SDS011;3792;47.740;7.606;2023-12-04T01:31:30;13.67;;;7.87;;
7501;SDS011;3792;47.740;7.606;2023-12-04T01:33:58;11.37;;;7.10;;
7501;SDS011;3792;47.740;7.606;2023-12-04T01:36:26;12.33;;;7.50;;
7501;SDS011;3792;47.740;7.606;2023-12-04T01:38:53;11.00;;;6.43;;
7501;SDS011;3792;47.740;7.606;2023-12-04T01:41:20;56.57;;;24.43;;
7501;SDS011;3792;47.740;7.606;2023-12-04T01:43:47;14.70;;;9.23;;
7501;SDS011;3792;47.740;7.606;2023-12-04T01:46:15;27.90;;;14.20;;
7501;SDS011;3792;47.740;7.606;2023-12-04T01:48:43;22.80;;;12.13;;
7501;SDS011;3792;47.740;7.606;2023-12-04T01:51:13;14.27;;;8.17;;
7501;SDS011;3792;47.740;7.606;2023-12-04T01:53:41;14.07;;;9.00;;
7501;SDS011;3792;47.740;7.606;2023-12-04T01:56:09;11.67;;;7.87;;
7501;SDS011;3792;47.740;7.606;2023-12-04T01:58:36;11.37;;;7.87;;
7501;SDS011;3792;47.740;7.606;2023-12-04T02:01:04;11.90;;;8.07;;
7501;SDS011;3792;47.740;7.606;2023-12-04T02:03:32;11.53;;;7.87;;
7501;SDS011;3792;47.740;7.606;2023-12-04T02:05:59;11.87;;;8.10;;
7501;SDS011;3792;47.740;7.606;2023-12-04T02:08:29;13.23;;;8.53;;
7501;SDS011;3792;47.740;7.606;2023-12-04T02:10:56;11.83;;;7.87;;
7501;SDS011;3792;47.740;7.606;2023-12-04T02:13:23;17.60;;;9.57;;
7501;SDS011;3792;47.740;7.606;2023-12-04T02:15:51;16.53;;;10.63;;
7501;SDS011;3792;47.740;7.606;2023-12-04T02:18:20;13.90;;;8.83;;
7501;SDS011;3792;47.740;7.606;2023-12-04T02:20:48;12.13;;;9.07;;
7501;SDS011;3792;47.740;7.606;2023-12-04T02:23:15;14.03;;;8.33;;
7501;SDS011;3792;47.740;7.606;2023-12-04T02:25:43;13.63;;;8.30;;
7501;SDS011;3792;47.740;7.606;2023-12-04T02:28:11;13.30;;;8.33;;
7501;SDS011;3792;47.740;7.606;2023-12-04T02:30:43;12.60;;;8.07;;
7501;SDS011;3792;47.740;7.606;2023-12-04T02:33:11;12.33;;;7.93;;
7501;SDS011;3792;47.740;7.606;2023-12-04T02:35:41;14.43;;;8.80;;
7501;SDS011;3792;47.740;7.606;2023-12-04T02:38:09;13.20;;;8.63;;
7501;SDS011;3792;47.740;7.606;2023-12-04T02:40:38;13.60;;;8.63;;
7501;SDS011;3792;47.740;7.606;2023-12-04T02:43:06;13.50;;;9.43;;
7501;SDS011;3792;47.740;7.606;2023-12-04T02:45:33;13.53;;;8.00;;
7501;SDS011;3792;47.740;7.606;2023-12-04T02:48:00;11.13;;;7.20;;
7501;SDS011;3792;47.740;7.606;2023-12-04T02:50:27;11.83;;;8.23;;
7501;SDS011;3792;47.740;7.606;2023-12-04T02:52:54;10.73;;;7.57;;
7501;SDS011;3792;47.740;7.606;2023-12-04T02:55:21;14.87;;;8.90;;
7501;SDS011;3792;47.740;7.606;2023-12-04T02:57:49;13.53;;;8.57;;
7501;SDS011;3792;47.740;7.606;2023-12-04T03:00:17;11.53;;;7.97;;
7501;SDS011;3792;47.740;7.606;2023-12-04T03:02:45;14.83;;;8.77;;
7501;SDS011;3792;47.740;7.606;2023-12-04T03:05:12;15.00;;;8.27;;
7501;SDS011;3792;47.740;7.606;2023-12-04T03:07:39;13.87;;;8.03;;
7501;SDS011;3792;47.740;7.606;2023-12-04T03:10:06;12.13;;;8.13;;
7501;SDS011;3792;47.740;7.606;2023-12-04T03:12:34;13.17;;;8.27;;
7501;SDS011;3792;47.740;7.606;2023-12-04T03:15:01;15.97;;;8.90;;
7501;SDS011;3792;47.740;7.606;2023-12-04T03:17:29;12.07;;;7.77;;
7501;SDS011;3792;47.740;7.606;2023-12-04T03:19:56;12.23;;;7.57;;
7501;SDS011;3792;47.740;7.606;2023-12-04T03:22:23;10.40;;;7.17;;
7501;SDS011;3792;47.740;7.606;2023-12-04T03:24:50;10.97;;;7.00;;
7501;SDS011;3792;47.740;7.606;2023-12-04T03:27:17;9.97;;;6.63;;
7501;SDS011;3792;47.740;7.606;2023-12-04T03:29:44;8.60;;;6.73;;
7501;SDS011;3792;47.740;7.606;2023-12-04T03:32:11;9.30;;;6.23;;
7501;SDS011;3792;47.740;7.606;2023-12-04T03:34:40;8.30;;;6.30;;
7501;SDS011;3792;47.740;7.606;2023-12-04T03:37:07;9.70;;;5.77;;
7501;SDS011;3792;47.740;7.606;2023-12-04T03:39:34;12.97;;;7.43;;
7501;SDS011;3792;47.740;7.606;2023-12-04T03:42:01;14.37;;;7.43;;
7501;SDS011;3792;47.740;7.606;2023-12-04T03:44:28;12.10;;;7.30;;
7501;SDS011;3792;47.740;7.606;2023-12-04T03:46:55;11.17;;;6.90;;
7501;SDS011;3792;47.740;7.606;2023-12-04T03:49:22;11.83;;;7.70;;
7501;SDS011;3792;47.740;7.606;2023-12-04T03:51:50;13.67;;;8.07;;
7501;SDS011;3792;47.740;7.606;2023-12-04T03:54:17;14.10;;;8.37;;
7501;SDS011;3792;47.740;7.606;2023-12-04T03:56:44;12.97;;;7.83;;
7501;SDS011;3792;47.740;7.606;2023-12-04T03:59:11;12.47;;;8.27;;
7501;SDS011;3792;47.740;7.606;2023-12-04T04:01:38;10.93;;;7.30;;
7501;SDS011;3792;47.740;7.606;2023-12-04T04:04:05;13.50;;;7.70;;
7501;SDS011;3792;47.740;7.606;2023-12-04T04:06:32;14.00;;;8.47;;
7501;SDS011;3792;47.740;7.606;2023-12-04T04:09:01;14.77;;;8.83;;
7501;SDS011;3792;47.740;7.606;2023-12-04T04:11:28;15.23;;;8.87;;
7501;SDS011;3792;47.740;7.606;2023-12-04T04:13:55;17.87;;;11.13;;
7501;SDS011;3792;47.740;7.606;2023-12-04T04:16:22;15.40;;;9.23;;
7501;SDS011;3792;47.740;7.606;2023-12-04T04:18:49;13.43;;;8.33;;
7501;SDS011;3792;47.740;7.606;2023-12-04T04:21:16;12.67;;;7.90;;
7501;SDS011;3792;47.740;7.606;2023-12-04T04:23:43;11.13;;;8.13;;
7501;SDS011;3792;47.740;7.606;2023-12-04T04:26:12;13.43;;;8.00;;
7501;SDS011;3792;47.740;7.606;2023-12-04T04:28:39;13.07;;;8.37;;
7501;SDS011;3792;47.740;7.606;2023-12-04T04:31:06;13.27;;;8.30;;
7501;SDS011;3792;47.740;7.606;2023-12-04T04:33:33;12.27;;;8.30;;
7501;SDS011;3792;47.740;7.606;2023-12-04T04:36:00;13.23;;;8.40;;
7501;SDS011;3792;47.740;7.606;2023-12-04T04:38:27;11.73;;;7.93;;
7501;SDS011;3792;47.740;7.606;2023-12-04T04:40:54;12.37;;;8.00;;
7501;SDS011;3792;47.740;7.606;2023-12-04T04:43:23;14.57;;;8.63;;
7501;SDS011;3792;47.740;7.606;2023-12-04T04:45:50;24.97;;;13.50;;
7501;SDS011;3792;47.740;7.606;2023-12-04T04:48:17;28.20;;;15.93;;
7501;SDS011;3792;47.740;7.606;2023-12-04T04:50:45;14.97;;;9.20;;
7501;SDS011;3792;47.740;7.606;2023-12-04T04:53:12;17.87;;;10.93;;
7501;SDS011;3792;47.740;7.606;2023-12-04T04:55:39;15.00;;;9.30;;
7501;SDS011;3792;47.740;7.606;2023-12-04T04:58:06;14.23;;;9.07;;
7501;SDS011;3792;47.740;7.606;2023-12-04T05:00:34;17.47;;;9.97;;
7501;SDS011;3792;47.740;7.606;2023-12-04T05:03:01;12.43;;;8.23;;
7501;SDS011;3792;47.740;7.606;2023-12-04T05:05:28;15.97;;;9.83;;
7501;SDS011;3792;47.740;7.606;2023-12-04T05:07:55;14.47;;;9.33;;
7501;SDS011;3792;47.740;7.606;2023-12-04T05:10:22;10.13;;;7.07;;
7501;SDS011;3792;47.740;7.606;2023-12-04T05:12:49;12.43;;;8.47;;
7501;SDS011;3792;47.740;7.606;2023-12-04T05:15:16;12.60;;;8.50;;
7501;SDS011;3792;47.740;7.606;2023-12-04T05:17:45;15.20;;;9.20;;
7501;SDS011;3792;47.740;7.606;2023-12-04T05:20:12;14.87;;;9.13;;
7501;SDS011;3792;47.740;7.606;2023-12-04T05:22:39;17.43;;;10.53;;
7501;SDS011;3792;47.740;7.606;2023-12-04T05:25:07;16.07;;;10.23;;
7501;SDS011;3792;47.740;7.606;2023-12-04T05:27:34;14.40;;;9.70;;
7501;SDS011;3792;47.740;7.606;2023-12-04T05:30:01;16.27;;;10.93;;
7501;SDS011;3792;47.740;7.606;2023-12-04T05:32:28;16.50;;;10.37;;
7501;SDS011;3792;47.740;7.606;2023-12-04T05:34:56;16.83;;;10.90;;
7501;SDS011;3792;47.740;7.606;2023-12-04T05:37:23;14.73;;;9.63;;
7501;SDS011;3792;47.740;7.606;2023-12-04T05:39:50;15.33;;;9.43;;
7501;SDS011;3792;47.740;7.606;2023-12-04T05:42:17;12.03;;;8.30;;
7501;SDS011;3792;47.740;7.606;2023-12-04T05:44:45;13.50;;;8.30;;
7501;SDS011;3792;47.740;7.606;2023-12-04T05:47:12;13.00;;;8.77;;
7501;SDS011;3792;47.740;7.606;2023-12-04T05:49:39;15.10;;;9.00;;
7501;SDS011;3792;47.740;7.606;2023-12-04T05:52:08;12.30;;;8.27;;
7501;SDS011;3792;47.740;7.606;2023-12-04T05:54:35;14.80;;;8.83;;
7501;SDS011;3792;47.740;7.606;2023-12-04T05:57:02;14.47;;;9.70;;
7501;SDS011;3792;47.740;7.606;2023-12-04T05:59:29;13.50;;;9.10;;
7501;SDS011;3792;47.740;7.606;2023-12-04T06:01:56;13.17;;;8.53;;
7501;SDS011;3792;47.740;7.606;2023-12-04T06:04:23;14.87;;;9.13;;
7501;SDS011;3792;47.740;7.606;2023-12-04T06:06:50;13.70;;;9.13;;
7501;SDS011;3792;47.740;7.606;2023-12-04T06:09:19;16.43;;;9.33;;
7501;SDS011;3792;47.740;7.606;2023-12-04T06:11:46;15.70;;;10.03;;
7501;SDS011;3792;47.740;7.606;2023-12-04T06:14:13;14.03;;;9.17;;
7501;SDS011;3792;47.740;7.606;2023-12-04T06:16:40;17.20;;;11.93;;
7501;SDS011;3792;47.740;7.606;2023-12-04T06:19:07;15.00;;;9.90;;
7501;SDS011;3792;47.740;7.606;2023-12-04T06:21:34;15.13;;;9.80;;
7501;SDS011;3792;47.740;7.606;2023-12-04T06:24:01;19.90;;;12.10;;
7501;SDS011;3792;47.740;7.606;2023-12-04T06:26:30;21.80;;;13.87;;
7501;SDS011;3792;47.740;7.606;2023-12-04T06:28:59;24.17;;;15.43;;
7501;SDS011;3792;47.740;7.606;2023-12-04T06:31:27;23.20;;;15.13;;
7501;SDS011;3792;47.740;7.606;2023-12-04T06:33:54;21.07;;;12.77;;
7501;SDS011;3792;47.740;7.606;2023-12-04T06:36:22;16.93;;;10.53;;
7501;SDS011;3792;47.740;7.606;2023-12-04T06:38:51;15.43;;;10.10;;
7501;SDS011;3792;47.740;7.606;2023-12-04T06:41:20;18.20;;;11.53;;
7501;SDS011;3792;47.740;7.606;2023-12-04T06:43:50;19.30;;;12.20;;
7501;SDS011;3792;47.740;7.606;2023-12-04T06:46:18;17.47;;;10.97;;
7501;SDS011;3792;47.740;7.606;2023-12-04T06:48:50;17.80;;;10.00;;
7501;SDS011;3792;47.740;7.606;2023-12-04T06:51:21;16.10;;;10.03;;
7501;SDS011;3792;47.740;7.606;2023-12-04T06:53:48;14.83;;;9.70;;
7501;SDS011;3792;47.740;7.606;2023-12-04T06:56:15;16.73;;;10.07;;
7501;SDS011;3792;47.740;7.606;2023-12-04T06:58:42;14.13;;;9.73;;
7501;SDS011;3792;47.740;7.606;2023-12-04T07:01:11;14.80;;;9.07;;
7501;SDS011;3792;47.740;7.606;2023-12-04T07:03:38;13.70;;;8.87;;
7501;SDS011;3792;47.740;7.606;2023-12-04T07:06:05;13.77;;;9.77;;
7501;SDS011;3792;47.740;7.606;2023-12-04T07:08:33;23.27;;;15.50;;
7501;SDS011;3792;47.740;7.606;2023-12-04T07:11:00;19.40;;;13.00;;
7501;SDS011;3792;47.740;7.606;2023-12-04T07:13:27;16.50;;;11.03;;
7501;SDS011;3792;47.740;7.606;2023-12-04T07:15:55;18.47;;;11.60;;
7501;SDS011;3792;47.740;7.606;2023-12-04T07:18:25;17.60;;;11.37;;
7501;SDS011;3792;47.740;7.606;2023-12-04T07:20:52;19.77;;;12.73;;
7501;SDS011;3792;47.740;7.606;2023-12-04T07:23:19;28.30;;;16.37;;
7501;SDS011;3792;47.740;7.606;2023-12-04T07:25:47;16.40;;;12.13;;
7501;SDS011;3792;47.740;7.606;2023-12-04T07:28:16;14.03;;;7.67;;
7501;SDS011;3792;47.740;7.606;2023-12-04T07:30:44;12.90;;;7.60;;
7501;SDS011;3792;47.740;7.606;2023-12-04T07:33:11;16.83;;;9.10;;
7501;SDS011;3792;47.740;7.606;2023-12-04T07:35:40;22.57;;;11.77;;
7501;SDS011;3792;47.740;7.606;2023-12-04T07:38:07;20.57;;;11.20;;
7501;SDS011;3792;47.740;7.606;2023-12-04T07:40:34;18.10;;;10.03;;
7501;SDS011;3792;47.740;7.606;2023-12-04T07:43:01;18.03;;;11.77;;
7501;SDS011;3792;47.740;7.606;2023-12-04T07:45:28;19.30;;;12.60;;
7501;SDS011;3792;47.740;7.606;2023-12-04T07:47:55;21.07;;;13.27;;
7501;SDS011;3792;47.740;7.606;2023-12-04T07:50:22;22.23;;;13.67;;
7501;SDS011;3792;47.740;7.606;2023-12-04T07:52:51;20.20;;;12.80;;
7501;SDS011;3792;47.740;7.606;2023-12-04T07:55:18;20.67;;;14.10;;
7501;SDS011;3792;47.740;7.606;2023-12-04T07:57:45;19.47;;;11.80;;
7501;SDS011;3792;47.740;7.606;2023-12-04T08:00:13;19.87;;;12.77;;
7501;SDS011;3792;47.740;7.606;2023-12-04T08:02:43;18.43;;;11.17;;
7501;SDS011;3792;47.740;7.606;2023-12-04T08:05:11;18.80;;;11.17;;
7501;SDS011;3792;47.740;7.606;2023-12-04T08:07:38;16.60;;;11.70;;
7501;SDS011;3792;47.740;7.606;2023-12-04T08:10:07;21.70;;;13.63;;
7501;SDS011;3792;47.740;7.606;2023-12-04T08:12:35;20.00;;;12.97;;
7501;SDS011;3792;47.740;7.606;2023-12-04T08:15:02;19.87;;;11.80;;
7501;SDS011;3792;47.740;7.606;2023-12-04T08:17:30;17.43;;;12.83;;
7501;SDS011;3792;47.740;7.606;2023-12-04T08:19:57;20.90;;;13.53;;
7501;SDS011;3792;47.740;7.606;2023-12-04T08:22:24;19.20;;;11.13;;
7501;SDS011;3792;47.740;7.606;2023-12-04T08:24:51;15.83;;;9.40;;
7501;SDS011;3792;47.740;7.606;2023-12-04T08:27:19;11.90;;;7.33;;
7501;SDS011;3792;47.740;7.606;2023-12-04T08:29:46;12.90;;;7.27;;
7501;SDS011;3792;47.740;7.606;2023-12-04T08:32:13;14.03;;;7.47;;
7501;SDS011;3792;47.740;7.606;2023-12-04T08:34:40;11.80;;;7.03;;
7501;SDS011;3792;47.740;7.606;2023-12-04T08:37:07;10.63;;;6.43;;
7501;SDS011;3792;47.740;7.606;2023-12-04T08:39:34;13.13;;;8.03;;
7501;SDS011;3792;47.740;7.606;2023-12-04T08:42:01;14.97;;;9.53;;
7501;SDS011;3792;47.740;7.606;2023-12-04T08:44:30;14.07;;;9.17;;
7501;SDS011;3792;47.740;7.606;2023-12-04T08:46:57;14.33;;;8.70;;
7501;SDS011;3792;47.740;7.606;2023-12-04T08:49:25;15.77;;;9.10;;
7501;SDS011;3792;47.740;7.606;2023-12-04T08:51:52;12.97;;;8.77;;
7501;SDS011;3792;47.740;7.606;2023-12-04T08:54:19;19.97;;;12.07;;
7501;SDS011;3792;47.740;7.606;2023-12-04T08:56:46;18.27;;;10.60;;
7501;SDS011;3792;47.740;7.606;2023-12-04T08:59:13;15.47;;;10.33;;
7501;SDS011;3792;47.740;7.606;2023-12-04T09:01:43;14.97;;;8.20;;
7501;SDS011;3792;47.740;7.606;2023-12-04T09:04:10;16.53;;;9.40;;
7501;SDS011;3792;47.740;7.606;2023-12-04T09:06:37;15.80;;;9.37;;
7501;SDS011;3792;47.740;7.606;2023-12-04T09:09:04;18.07;;;10.07;;
7501;SDS011;3792;47.740;7.606;2023-12-04T09:11:31;16.57;;;9.43;;
7501;SDS011;3792;47.740;7.606;2023-12-04T09:13:58;15.80;;;10.00;;
7501;SDS011;3792;47.740;7.606;2023-12-04T09:16:25;19.90;;;12.17;;
7501;SDS011;3792;47.740;7.606;2023-12-04T09:18:54;20.17;;;12.67;;
7501;SDS011;3792;47.740;7.606;2023-12-04T09:21:21;24.33;;;13.53;;
7501;SDS011;3792;47.740;7.606;2023-12-04T09:23:48;61.37;;;23.63;;
7501;SDS011;3792;47.740;7.606;2023-12-04T09:26:15;54.87;;;23.77;;
7501;SDS011;3792;47.740;7.606;2023-12-04T09:28:42;25.70;;;14.47;;
7501;SDS011;3792;47.740;7.606;2023-12-04T09:31:09;18.83;;;10.77;;
7501;SDS011;3792;47.740;7.606;2023-12-04T09:33:36;13.23;;;8.47;;
7501;SDS011;3792;47.740;7.606;2023-12-04T09:36:05;13.93;;;8.47;;
7501;SDS011;3792;47.740;7.606;2023-12-04T09:38:33;14.17;;;8.00;;
7501;SDS011;3792;47.740;7.606;2023-12-04T09:41:01;14.07;;;8.67;;
7501;SDS011;3792;47.740;7.606;2023-12-04T09:43:28;13.77;;;9.50;;
7501;SDS011;3792;47.740;7.606;2023-12-04T09:45:57;25.40;;;13.13;;
7501;SDS011;3792;47.740;7.606;2023-12-04T09:48:26;19.53;;;10.90;;
7501;SDS011;3792;47.740;7.606;2023-12-04T09:50:55;21.00;;;11.90;;
7501;SDS011;3792;47.740;7.606;2023-12-04T09:53:24;16.40;;;10.10;;
7501;SDS011;3792;47.740;7.606;2023-12-04T09:55:53;12.23;;;7.90;;
7501;SDS011;3792;47.740;7.606;2023-12-04T09:58:23;12.43;;;7.87;;
7501;SDS011;3792;47.740;7.606;2023-12-04T10:00:53;12.43;;;6.70;;
7501;SDS011;3792;47.740;7.606;2023-12-04T10:03:21;9.47;;;5.07;;
7501;SDS011;3792;47.740;7.606;2023-12-04T10:05:48;5.93;;;4.03;;
7501;SDS011;3792;47.740;7.606;2023-12-04T10:08:15;7.90;;;4.63;;
7501;SDS011;3792;47.740;7.606;2023-12-04T10:10:44;9.60;;;6.87;;
7501;SDS011;3792;47.740;7.606;2023-12-04T10:13:11;11.43;;;6.87;;
7501;SDS011;3792;47.740;7.606;2023-12-04T10:15:45;13.63;;;8.00;;
7501;SDS011;3792;47.740;7.606;2023-12-04T10:18:23;11.03;;;7.00;;
7501;SDS011;3792;47.740;7.606;2023-12-04T10:20:52;11.90;;;6.80;;
7501;SDS011;3792;47.740;7.606;2023-12-04T10:23:20;10.77;;;6.53;;
7501;SDS011;3792;47.740;7.606;2023-12-04T10:25:49;12.77;;;6.90;;
7501;SDS011;3792;47.740;7.606;2023-12-04T10:28:17;8.83;;;5.20;;
7501;SDS011;3792;47.740;7.606;2023-12-04T10:30:44;10.30;;;5.07;;
7501;SDS011;3792;47.740;7.606;2023-12-04T10:33:12;6.67;;;4.40;;
7501;SDS011;3792;47.740;7.606;2023-12-04T10:35:40;6.80;;;3.67;;
7501;SDS011;3792;47.740;7.606;2023-12-04T10:38:08;5.40;;;3.77;;
7501;SDS011;3792;47.740;7.606;2023-12-04T10:40:36;7.10;;;3.23;;
7501;SDS011;3792;47.740;7.606;2023-12-04T10:43:11;3.90;;;2.57;;
7501;SDS011;3792;47.740;7.606;2023-12-04T10:45:41;3.63;;;2.43;;
7501;SDS011;3792;47.740;7.606;2023-12-04T10:48:10;4.30;;;2.07;;
7501;SDS011;3792;47.740;7.606;2023-12-04T10:50:39;2.13;;;1.93;;
7501;SDS011;3792;47.740;7.606;2023-12-04T10:53:07;2.63;;;2.00;;
7501;SDS011;3792;47.740;7.606;2023-12-04T10:55:35;3.33;;;2.73;;
7501;SDS011;3792;47.740;7.606;2023-12-04T10:58:04;3.83;;;2.77;;
7501;SDS011;3792;47.740;7.606;2023-12-04T11:00:39;11.57;;;5.37;;
7501;SDS011;3792;47.740;7.606;2023-12-04T11:03:09;4.40;;;2.83;;
7501;SDS011;3792;47.740;7.606;2023-12-04T11:05:40;4.10;;;3.50;;
7501;SDS011;3792;47.740;7.606;2023-12-04T11:08:08;3.17;;;2.87;;
7501;SDS011;3792;47.740;7.606;2023-12-04T11:10:40;4.37;;;2.83;;
7501;SDS011;3792;47.740;7.606;2023-12-04T11:13:12;3.93;;;2.43;;
7501;SDS011;3792;47.740;7.606;2023-12-04T11:15:45;2.83;;;2.40;;
7501;SDS011;3792;47.740;7.606;2023-12-04T11:18:16;2.20;;;2.00;;
7501;SDS011;3792;47.740;7.606;2023-12-04T11:20:51;2.00;;;1.80;;
7501;SDS011;3792;47.740;7.606;2023-12-04T11:23:22;1.63;;;1.50;;
7501;SDS011;3792;47.740;7.606;2023-12-04T11:25:50;2.40;;;1.67;;
7501;SDS011;3792;47.740;7.606;2023-12-04T11:28:17;1.70;;;1.60;;
7501;SDS011;3792;47.740;7.606;2023-12-04T11:30:47;3.43;;;2.30;;
7501;SDS011;3792;47.740;7.606;2023-12-04T11:33:15;1.90;;;1.80;;
7501;SDS011;3792;47.740;7.606;2023-12-04T11:35:43;2.47;;;1.67;;
7501;SDS011;3792;47.740;7.606;2023-12-04T11:38:12;2.73;;;2.27;;
7501;SDS011;3792;47.740;7.606;2023-12-04T11:40:41;2.53;;;1.60;;
7501;SDS011;3792;47.740;7.606;2023-12-04T11:43:21;2.07;;;1.87;;
7501;SDS011;3792;47.740;7.606;2023-12-04T11:45:50;3.50;;;2.43;;
7501;SDS011;3792;47.740;7.606;2023-12-04T11:48:18;3.17;;;2.30;;
7501;SDS011;3792;47.740;7.606;2023-12-04T11:50:49;4.87;;;3.53;;
7501;SDS011;3792;47.740;7.606;2023-12-04T11:53:16;4.40;;;3.27;;
7501;SDS011;3792;47.740;7.606;2023-12-04T11:55:43;4.93;;;3.40;;
7501;SDS011;3792;47.740;7.606;2023-12-04T11:58:12;4.23;;;3.17;;
7501;SDS011;3792;47.740;7.606;2023-12-04T12:00:40;4.13;;;3.10;;
7501;SDS011;3792;47.740;7.606;2023-12-04T12:03:10;2.60;;;2.27;;
7501;SDS011;3792;47.740;7.606;2023-12-04T12:05:37;3.47;;;2.50;;
7501;SDS011;3792;47.740;7.606;2023-12-04T12:08:06;4.57;;;2.37;;
7501;SDS011;3792;47.740;7.606;2023-12-04T12:10:34;6.83;;;4.50;;
7501;SDS011;3792;47.740;7.606;2023-12-04T12:13:01;4.97;;;3.40;;
7501;SDS011;3792;47.740;7.606;2023-12-04T12:15:28;3.50;;;2.60;;
7501;SDS011;3792;47.740;7.606;2023-12-04T12:17:55;5.77;;;3.73;;
7501;SDS011;3792;47.740;7.606;2023-12-04T12:20:24;7.80;;;3.80;;
7501;SDS011;3792;47.740;7.606;2023-12-04T12:22:52;7.20;;;4.23;;
7501;SDS011;3792;47.740;7.606;2023-12-04T12:25:19;7.33;;;3.80;;
7501;SDS011;3792;47.740;7.606;2023-12-04T12:27:47;3.77;;;3.00;;
7501;SDS011;3792;47.740;7.606;2023-12-04T12:30:15;5.57;;;3.60;;
7501;SDS011;3792;47.740;7.606;2023-12-04T12:32:42;3.50;;;2.53;;
7501;SDS011;3792;47.740;7.606;2023-12-04T12:35:09;3.67;;;2.53;;
7501;SDS011;3792;47.740;7.606;2023-12-04T12:37:39;3.17;;;2.40;;
7501;SDS011;3792;47.740;7.606;2023-12-04T12:40:06;2.73;;;2.20;;
7501;SDS011;3792;47.740;7.606;2023-12-04T12:42:36;2.40;;;2.00;;
7501;SDS011;3792;47.740;7.606;2023-12-04T12:45:07;1.87;;;1.60;;
7501;SDS011;3792;47.740;7.606;2023-12-04T12:47:36;3.47;;;1.70;;
7501;SDS011;3792;47.740;7.606;2023-12-04T12:50:07;1.63;;;1.50;;
7501;SDS011;3792;47.740;7.606;2023-12-04T12:52:36;2.53;;;1.90;;
7501;SDS011;3792;47.740;7.606;2023-12-04T12:55:05;2.20;;;2.00;;
7501;SDS011;3792;47.740;7.606;2023-12-04T12:57:32;1.90;;;1.80;;
7501;SDS011;3792;47.740;7.606;2023-12-04T13:00:00;2.53;;;1.67;;
7501;SDS011;3792;47.740;7.606;2023-12-04T13:02:33;4.60;;;2.43;;
7501;SDS011;3792;47.740;7.606;2023-12-04T13:05:01;3.70;;;2.43;;
7501;SDS011;3792;47.740;7.606;2023-12-04T13:07:29;4.13;;;3.07;;
7501;SDS011;3792;47.740;7.606;2023-12-04T13:09:58;6.10;;;3.47;;
7501;SDS011;3792;47.740;7.606;2023-12-04T13:12:25;3.90;;;2.93;;
7501;SDS011;3792;47.740;7.606;2023-12-04T13:14:52;3.83;;;3.13;;
7501;SDS011;3792;47.740;7.606;2023-12-04T13:17:19;5.33;;;3.20;;
7501;SDS011;3792;47.740;7.606;2023-12-04T13:19:46;5.10;;;2.77;;
7501;SDS011;3792;47.740;7.606;2023-12-04T13:22:13;3.90;;;2.60;;
7501;SDS011;3792;47.740;7.606;2023-12-04T13:24:40;3.23;;;2.47;;
7501;SDS011;3792;47.740;7.606;2023-12-04T13:27:08;3.30;;;2.37;;
7501;SDS011;3792;47.740;7.606;2023-12-04T13:29:36;2.40;;;2.20;;
7501;SDS011;3792;47.740;7.606;2023-12-04T13:32:03;2.17;;;1.83;;
7501;SDS011;3792;47.740;7.606;2023-12-04T13:34:31;3.27;;;2.57;;
7501;SDS011;3792;47.740;7.606;2023-12-04T13:36:58;3.20;;;2.30;;
7501;SDS011;3792;47.740;7.606;2023-12-04T13:39:25;2.30;;;1.80;;
7501;SDS011;3792;47.740;7.606;2023-12-04T13:42:14;2.30;;;1.80;;
7501;SDS011;3792;47.740;7.606;2023-12-04T13:44:59;3.87;;;2.33;;
7501;SDS011;3792;47.740;7.606;2023-12-04T13:47:27;2.73;;;1.93;;
7501;SDS011;3792;47.740;7.606;2023-12-04T13:49:55;2.47;;;2.27;;
7501;SDS011;3792;47.740;7.606;2023-12-04T13:52:24;3.23;;;1.90;;
7501;SDS011;3792;47.740;7.606;2023-12-04T13:54:56;2.13;;;1.57;;
7501;SDS011;3792;47.740;7.606;2023-12-04T13:57:24;3.43;;;2.07;;
7501;SDS011;3792;47.740;7.606;2023-12-04T13:59:53;3.57;;;2.30;;
7501;SDS011;3792;47.740;7.606;2023-12-04T14:02:22;2.90;;;1.70;;
7501;SDS011;3792;47.740;7.606;2023-12-04T14:04:49;2.10;;;1.90;;
7501;SDS011;3792;47.740;7.606;2023-12-04T14:07:16;2.37;;;1.80;;
7501;SDS011;3792;47.740;7.606;2023-12-04T14:09:43;2.33;;;1.87;;
7501;SDS011;3792;47.740;7.606;2023-12-04T14:12:11;3.23;;;2.10;;
7501;SDS011;3792;47.740;7.606;2023-12-04T14:14:40;3.03;;;2.30;;
7501;SDS011;3792;47.740;7.606;2023-12-04T14:17:07;2.53;;;2.07;;
7501;SDS011;3792;47.740;7.606;2023-12-04T14:19:35;2.77;;;1.97;;
7501;SDS011;3792;47.740;7.606;2023-12-04T14:22:04;2.07;;;1.87;;
7501;SDS011;3792;47.740;7.606;2023-12-04T14:24:31;3.63;;;2.60;;
7501;SDS011;3792;47.740;7.606;2023-12-04T14:27:00;2.50;;;2.30;;
7501;SDS011;3792;47.740;7.606;2023-12-04T14:29:28;2.00;;;1.77;;
7501;SDS011;3792;47.740;7.606;2023-12-04T14:31:56;1.80;;;1.60;;
7501;SDS011;3792;47.740;7.606;2023-12-04T14:34:23;1.63;;;1.53;;
7501;SDS011;3792;47.740;7.606;2023-12-04T14:36:50;1.73;;;1.63;;
7501;SDS011;3792;47.740;7.606;2023-12-04T14:39:17;3.93;;;2.50;;
7501;SDS011;3792;47.740;7.606;2023-12-04T14:41:44;1.70;;;1.60;;
7501;SDS011;3792;47.740;7.606;2023-12-04T14:44:11;2.10;;;1.60;;
7501;SDS011;3792;47.740;7.606;2023-12-04T14:46:38;1.90;;;1.53;;
7501;SDS011;3792;47.740;7.606;2023-12-04T14:49:07;2.17;;;1.47;;
7501;SDS011;3792;47.740;7.606;2023-12-04T14:51:34;1.57;;;1.50;;
7501;SDS011;3792;47.740;7.606;2023-12-04T14:54:01;1.40;;;1.30;;
7501;SDS011;3792;47.740;7.606;2023-12-04T14:56:42;1.63;;;1.37;;
7501;SDS011;3792;47.740;7.606;2023-12-04T14:59:27;1.47;;;1.37;;
7501;SDS011;3792;47.740;7.606;2023-12-04T15:02:11;1.40;;;1.10;;
7501;SDS011;3792;47.740;7.606;2023-12-04T15:05:16;1.37;;;1.10;;
7501;SDS011;3792;47.740;7.606;2023-12-04T15:08:12;1.70;;;1.60;;